Time;durP1;ratioP1;P1;durP2;ratioP2;P2;SDS_P1;SDS_P2;PMS_P1;PMS_P2;Temp;Humidity;BMP_temperature;BMP_pressure;BME280_temperature;BME280_humidity;BME280_pressure;Samples;Min_cycle;Max_cycle;Signal;HPM_P1;HPM_P2
2023/06/30 00:00:12;;;;;;;6.00;4.60;;;;;;;18.86;64.44;99132.52;105607;1257;60413;-71
2023/06/30 00:02:41;;;;;;;4.80;4.00;;;;;;;18.83;64.51;99127.42;105504;1254;60464;-70
2023/06/30 00:05:09;;;;;;;5.60;4.80;;;;;;;18.81;64.48;99126.13;105487;1254;64052;-71
2023/06/30 00:07:36;;;;;;;5.90;4.60;;;;;;;18.77;64.47;99130.86;105581;1254;60454;-70
2023/06/30 00:10:06;;;;;;;8.00;4.70;;;;;;;18.70;64.58;99131.52;105776;1254;64209;-71
2023/06/30 00:12:33;;;;;;;6.40;4.60;;;;;;;18.65;64.72;99135.05;105589;1259;60506;-70
2023/06/30 00:15:00;;;;;;;5.60;4.90;;;;;;;18.61;64.78;99140.60;105811;1257;60471;-70
2023/06/30 00:17:27;;;;;;;7.00;4.50;;;;;;;18.58;64.73;99139.38;105666;1258;65198;-70
2023/06/30 00:19:58;;;;;;;6.20;4.70;;;;;;;18.56;64.74;99139.23;105787;1254;60477;-71
2023/06/30 00:22:25;;;;;;;6.50;4.90;;;;;;;18.55;64.82;99145.50;105659;1259;62645;-71
2023/06/30 00:24:55;;;;;;;7.10;4.80;;;;;;;18.54;64.89;99149.38;105722;1259;60541;-71
2023/06/30 00:27:22;;;;;;;5.10;4.50;;;;;;;18.51;64.88;99137.46;105519;1254;60413;-71
2023/06/30 00:29:49;;;;;;;5.10;4.10;;;;;;;18.47;64.85;99140.30;106004;1254;63787;-71
2023/06/30 00:32:15;;;;;;;6.30;4.70;;;;;;;18.41;64.83;99136.58;105719;1254;60440;-71
2023/06/30 00:34:43;;;;;;;5.60;4.80;;;;;;;18.37;64.90;99135.10;105786;1254;63963;-71
2023/06/30 00:37:10;;;;;;;5.80;4.40;;;;;;;18.33;65.02;99137.54;105514;1253;60533;-70
2023/06/30 00:39:37;;;;;;;5.80;4.40;;;;;;;18.29;65.17;99140.46;105811;1254;60448;-70
2023/06/30 00:42:05;;;;;;;4.70;4.30;;;;;;;18.27;65.15;99139.35;105755;1254;65266;-70
2023/06/30 00:44:32;;;;;;;5.70;4.30;;;;;;;18.24;65.11;99146.73;105906;1253;60480;-72
2023/06/30 00:47:01;;;;;;;7.10;5.30;;;;;;;18.19;65.15;99145.60;105607;1254;63827;-70
2023/06/30 00:49:28;;;;;;;6.60;5.00;;;;;;;18.15;65.24;99142.55;105750;1254;60448;-71
2023/06/30 00:51:55;;;;;;;6.50;4.80;;;;;;;18.13;65.25;99137.23;105744;1252;60432;-71
2023/06/30 00:54:22;;;;;;;7.30;4.90;;;;;;;18.13;65.23;99131.55;105517;1260;65086;-70
2023/06/30 00:56:49;;;;;;;6.00;4.30;;;;;;;18.11;65.27;99128.19;105503;1254;60518;-71
2023/06/30 00:59:15;;;;;;;6.00;4.60;;;;;;;18.08;65.27;99125.71;105365;1259;64546;-71
2023/06/30 01:01:57;;;;;;;8.10;4.80;;;;;;;18.06;65.35;99125.23;105556;1251;60366;-71
2023/06/30 01:04:32;;;;;;;8.90;4.70;;;;;;;18.05;65.18;99119.66;105566;1254;60509;-71
2023/06/30 01:07:03;;;;;;;7.30;4.80;;;;;;;18.02;65.15;99116.07;105483;1253;65165;-72
2023/06/30 01:09:37;;;;;;;5.70;4.70;;;;;;;18.00;65.30;99116.20;105548;1254;60927;-71
2023/06/30 01:12:05;;;;;;;6.10;3.50;;;;;;;18.00;65.20;99121.05;105472;1253;63093;-71
2023/06/30 01:14:32;;;;;;;5.40;4.30;;;;;;;17.98;65.11;99131.08;105443;1253;60453;-71
2023/06/30 01:16:59;;;;;;;7.10;4.80;;;;;;;17.95;65.11;99129.98;105802;1254;60415;-71
2023/06/30 01:19:29;;;;;;;6.40;4.90;;;;;;;17.92;65.16;99133.62;105929;1254;65042;-70
2023/06/30 01:22:00;;;;;;;7.40;4.60;;;;;;;17.89;65.09;99132.19;105527;1252;60534;-70
2023/06/30 01:24:33;;;;;;;8.10;4.70;;;;;;;17.89;65.16;99130.95;105507;1260;62817;-70
2023/06/30 01:27:01;;;;;;;6.60;4.50;;;;;;;17.88;65.16;99133.20;105536;1253;60331;-70
2023/06/30 01:29:29;;;;;;;6.40;4.90;;;;;;;17.85;65.11;99136.44;106110;1252;60432;-70
2023/06/30 01:31:58;;;;;;;5.90;4.60;;;;;;;17.84;65.32;99133.55;105508;1260;65067;-70
2023/06/30 01:34:26;;;;;;;5.90;4.90;;;;;;;17.86;65.20;99137.80;105237;1254;60631;-70
2023/06/30 01:36:52;;;;;;;7.60;5.10;;;;;;;17.85;65.18;99142.39;105535;1257;64072;-70
2023/06/30 01:39:19;;;;;;;5.40;4.80;;;;;;;17.83;65.10;99147.06;105561;1254;60469;-70
2023/06/30 01:41:46;;;;;;;8.10;5.00;;;;;;;17.82;64.94;99143.02;105646;1254;60402;-70
2023/06/30 01:44:13;;;;;;;4.80;4.30;;;;;;;17.78;65.03;99142.95;105432;1259;64948;-70
2023/06/30 01:46:40;;;;;;;5.10;4.60;;;;;;;17.77;64.94;99144.84;105818;1254;60437;-70
2023/06/30 01:49:09;;;;;;;6.40;4.60;;;;;;;17.76;65.04;99144.11;105604;1254;63703;-70
2023/06/30 01:51:37;;;;;;;4.90;4.40;;;;;;;17.75;64.86;99140.65;105407;1254;60439;-70
2023/06/30 01:54:04;;;;;;;5.10;4.60;;;;;;;17.72;64.81;99139.24;105659;1254;60399;-71
2023/06/30 01:56:31;;;;;;;7.60;4.50;;;;;;;17.70;64.88;99131.52;105257;1260;65274;-70
2023/06/30 01:58:58;;;;;;;6.30;4.30;;;;;;;17.69;64.80;99132.25;105444;1253;60514;-71
2023/06/30 02:01:24;;;;;;;6.60;4.50;;;;;;;17.68;64.85;99140.20;105950;1255;64126;-74
2023/06/30 02:03:51;;;;;;;7.10;4.40;;;;;;;17.66;64.83;99148.84;105615;1254;61846;-71
2023/06/30 02:06:18;;;;;;;5.00;4.30;;;;;;;17.64;64.78;99150.71;105542;1254;60645;-72
2023/06/30 02:08:45;;;;;;;6.00;4.50;;;;;;;17.64;64.73;99147.02;105811;1254;65256;-72
2023/06/30 02:11:12;;;;;;;7.00;4.40;;;;;;;17.61;64.74;99149.47;105831;1254;60537;-70
2023/06/30 02:13:39;;;;;;;8.10;4.20;;;;;;;17.59;64.76;99150.13;105661;1259;64001;-73
2023/06/30 02:16:06;;;;;;;6.10;4.40;;;;;;;17.59;64.88;99151.98;105678;1253;60512;-71
2023/06/30 02:18:32;;;;;;;7.30;4.30;;;;;;;17.59;64.90;99154.64;105507;1253;60483;-71
2023/06/30 02:21:00;;;;;;;4.80;4.30;;;;;;;17.58;64.66;99154.06;105659;1256;65195;-70
2023/06/30 02:23:28;;;;;;;7.70;4.30;;;;;;;17.57;64.75;99157.91;105835;1254;60449;-71
2023/06/30 02:25:55;;;;;;;6.10;4.90;;;;;;;17.56;64.69;99158.48;105863;1258;64037;-73
2023/06/30 02:28:25;;;;;;;6.70;4.60;;;;;;;17.56;64.62;99158.02;105813;1253;60315;-72
2023/06/30 02:30:55;;;;;;;6.60;4.30;;;;;;;17.55;64.61;99151.56;105828;1254;60447;-72
2023/06/30 02:33:24;;;;;;;6.00;4.50;;;;;;;17.55;64.64;99159.45;105837;1253;65052;-71
2023/06/30 02:35:51;;;;;;;8.10;4.40;;;;;;;17.52;64.63;99165.14;105760;1254;60436;-71
2023/06/30 02:38:19;;;;;;;5.20;4.20;;;;;;;17.51;64.62;99162.19;105653;1254;63970;-71
2023/06/30 02:40:46;;;;;;;4.60;3.80;;;;;;;17.52;64.70;99159.44;105700;1253;61002;-72
2023/06/30 02:43:13;;;;;;;5.60;4.50;;;;;;;17.53;64.64;99156.48;105994;1253;60402;-70
2023/06/30 02:45:40;;;;;;;5.60;4.00;;;;;;;17.54;64.61;99155.21;105590;1259;64875;-70
2023/06/30 02:48:06;;;;;;;4.60;3.60;;;;;;;17.54;64.46;99152.75;105514;1254;60453;-70
2023/06/30 02:50:33;;;;;;;6.50;4.20;;;;;;;17.54;64.46;99149.26;105698;1257;64140;-70
2023/06/30 02:53:00;;;;;;;6.80;4.00;;;;;;;17.53;64.53;99150.37;105711;1256;60428;-71
2023/06/30 02:55:27;;;;;;;5.90;3.70;;;;;;;17.53;64.56;99145.64;105467;1253;60406;-70
2023/06/30 02:57:56;;;;;;;5.20;4.00;;;;;;;17.53;64.51;99140.22;105595;1254;64951;-70
2023/06/30 03:00:23;;;;;;;5.70;4.10;;;;;;;17.52;64.45;99143.58;105892;1257;60325;-69
2023/06/30 03:02:50;;;;;;;5.50;4.10;;;;;;;17.51;64.48;99146.17;105687;1260;64044;-70
2023/06/30 03:05:18;;;;;;;8.10;4.10;;;;;;;17.50;64.50;99143.61;105702;1256;60541;-70
2023/06/30 03:07:45;;;;;;;4.80;3.80;;;;;;;17.50;64.54;99143.66;105738;1253;60539;-70
2023/06/30 03:10:13;;;;;;;6.60;3.80;;;;;;;17.51;64.58;99141.73;105614;1259;65265;-70
2023/06/30 03:12:41;;;;;;;5.40;4.10;;;;;;;17.54;64.63;99148.52;105656;1257;60540;-70
2023/06/30 03:15:09;;;;;;;7.20;4.10;;;;;;;17.56;64.57;99149.10;105750;1257;64019;-71
2023/06/30 03:17:36;;;;;;;4.70;4.10;;;;;;;17.58;64.60;99149.92;105751;1253;60839;-70
2023/06/30 03:20:10;;;;;;;3.90;3.50;;;;;;;17.61;64.54;99154.15;105771;1252;60454;-72
2023/06/30 03:22:40;;;;;;;6.00;4.00;;;;;;;17.65;64.58;99156.83;105578;1253;65355;-70
2023/06/30 03:25:08;;;;;;;3.70;3.40;;;;;;;17.68;64.53;99154.84;105319;1260;60303;-70
2023/06/30 03:27:37;;;;;;;5.90;4.10;;;;;;;17.72;64.48;99159.75;105380;1258;63868;-71
2023/06/30 03:30:05;;;;;;;5.90;4.30;;;;;;;17.75;64.42;99158.15;105738;1253;60451;-72
2023/06/30 03:32:33;;;;;;;4.40;3.80;;;;;;;17.79;64.43;99156.70;105709;1253;60533;-73
2023/06/30 03:35:02;;;;;;;4.30;3.80;;;;;;;17.81;64.30;99160.58;105555;1257;65119;-71
2023/06/30 03:37:31;;;;;;;6.80;4.20;;;;;;;17.82;64.33;99157.74;105686;1258;60477;-72
2023/06/30 03:40:00;;;;;;;7.10;3.90;;;;;;;17.84;64.12;99157.04;105640;1254;64173;-71
2023/06/30 03:42:27;;;;;;;3.80;3.40;;;;;;;17.87;64.14;99158.43;106300;1254;60494;-71
2023/06/30 03:44:54;;;;;;;6.20;4.10;;;;;;;17.91;63.97;99159.39;106550;1253;60339;-70
2023/06/30 03:47:21;;;;;;;5.50;4.20;;;;;;;17.95;64.05;99163.67;106343;1259;65299;-71
2023/06/30 03:49:48;;;;;;;4.60;3.80;;;;;;;18.01;64.04;99158.11;106325;1254;60465;-71
2023/06/30 03:52:15;;;;;;;5.70;4.10;;;;;;;18.07;63.96;99160.98;106559;1255;63907;-71
2023/06/30 03:54:42;;;;;;;5.30;3.90;;;;;;;18.13;63.63;99153.64;105948;1253;60564;-71
2023/06/30 03:57:09;;;;;;;5.00;3.70;;;;;;;18.21;63.64;99154.25;105867;1253;60343;-69
2023/06/30 03:59:36;;;;;;;6.40;4.00;;;;;;;18.28;63.48;99155.34;106138;1259;65269;-70
2023/06/30 04:02:04;;;;;;;6.30;4.20;;;;;;;18.36;63.44;99157.05;106271;1252;60422;-70
2023/06/30 04:04:32;;;;;;;4.60;3.80;;;;;;;18.43;63.31;99159.80;106090;1260;62873;-70
2023/06/30 04:06:59;;;;;;;6.30;3.90;;;;;;;18.48;62.90;99151.40;106858;1252;60543;-70
2023/06/30 04:09:26;;;;;;;4.40;4.00;;;;;;;18.51;62.73;99156.80;106692;1253;60515;-71
2023/06/30 04:11:52;;;;;;;4.60;3.90;;;;;;;18.54;62.73;99155.42;106046;1259;65205;-70
2023/06/30 04:14:19;;;;;;;4.40;3.80;;;;;;;18.57;62.51;99156.20;106159;1254;60507;-71
2023/06/30 04:16:46;;;;;;;6.10;4.20;;;;;;;18.61;62.34;99150.81;105994;1256;64070;-71
2023/06/30 04:19:13;;;;;;;4.40;3.90;;;;;;;18.67;62.38;99153.73;105707;1253;61406;-70
2023/06/30 04:21:40;;;;;;;5.00;4.00;;;;;;;18.73;62.25;99154.82;105510;1253;61532;-72
2023/06/30 04:24:07;;;;;;;4.40;3.90;;;;;;;18.79;62.10;99155.64;105686;1253;64686;-72
2023/06/30 04:26:35;;;;;;;7.50;4.20;;;;;;;18.84;61.94;99160.47;105747;1254;61339;-71
2023/06/30 04:29:02;;;;;;;5.70;3.90;;;;;;;18.87;62.02;99158.65;105847;1255;63960;-72
2023/06/30 04:31:29;;;;;;;5.30;4.30;;;;;;;18.90;61.94;99160.25;105808;1253;61239;-71
2023/06/30 04:33:56;;;;;;;4.70;4.20;;;;;;;18.93;61.74;99166.60;105498;1253;61733;-71
2023/06/30 04:36:23;;;;;;;5.10;4.00;;;;;;;18.99;61.69;99167.09;105781;1256;65769;-72
2023/06/30 04:38:49;;;;;;;6.70;4.40;;;;;;;19.04;61.46;99174.22;105710;1257;61308;-72
2023/06/30 04:41:17;;;;;;;5.00;4.20;;;;;;;19.10;61.14;99177.39;105614;1258;62699;-71
2023/06/30 04:43:44;;;;;;;9.80;4.30;;;;;;;19.13;61.13;99173.20;105709;1252;61252;-73
2023/06/30 04:46:11;;;;;;;5.50;4.50;;;;;;;19.20;61.23;99171.55;105542;1254;61243;-72
2023/06/30 04:48:38;;;;;;;5.20;4.10;;;;;;;19.27;61.01;99174.13;105843;1256;66039;-71
2023/06/30 04:51:07;;;;;;;8.20;4.20;;;;;;;19.34;60.88;99172.56;105531;1252;61203;-70
2023/06/30 04:53:35;;;;;;;6.10;4.70;;;;;;;19.39;60.82;99174.16;105919;1253;63993;-70
2023/06/30 04:56:02;;;;;;;6.00;4.30;;;;;;;19.43;60.64;99175.35;105870;1252;61164;-70
2023/06/30 04:58:29;;;;;;;7.00;4.60;;;;;;;19.49;60.63;99180.95;105862;1253;61368;-75
2023/06/30 05:00:56;;;;;;;5.20;4.30;;;;;;;19.57;60.70;99186.02;106053;1253;65997;-74
2023/06/30 05:03:23;;;;;;;9.90;4.40;;;;;;;19.63;60.45;99186.19;106111;1253;61335;-73
2023/06/30 05:05:52;;;;;;;5.10;4.40;;;;;;;19.70;60.16;99184.40;105986;1253;63903;-73
2023/06/30 05:08:22;;;;;;;5.20;4.40;;;;;;;19.75;59.73;99186.73;105803;1259;61249;-70
2023/06/30 05:10:48;;;;;;;5.00;4.50;;;;;;;19.78;59.50;99181.48;105621;1253;61289;-70
2023/06/30 05:13:16;;;;;;;6.10;4.50;;;;;;;19.80;59.62;99184.30;105658;1256;66000;-70
2023/06/30 05:15:44;;;;;;;4.70;4.20;;;;;;;19.87;59.70;99186.05;105769;1253;61349;-70
2023/06/30 05:18:12;;;;;;;4.90;4.40;;;;;;;19.95;59.70;99179.63;105649;1253;64099;-71
2023/06/30 05:20:39;;;;;;;5.70;4.80;;;;;;;19.99;59.29;99178.70;105703;1253;61273;-71
2023/06/30 05:23:05;;;;;;;5.90;4.80;;;;;;;20.06;59.38;99181.98;105698;1258;61250;-73
2023/06/30 05:25:33;;;;;;;5.10;4.60;;;;;;;20.12;59.26;99188.10;105906;1256;65768;-74
2023/06/30 05:27:59;;;;;;;6.20;4.50;;;;;;;20.17;58.99;99191.51;105921;1253;61332;-72
2023/06/30 05:30:26;;;;;;;5.30;4.30;;;;;;;20.22;58.85;99193.59;105745;1253;64116;-73
2023/06/30 05:32:53;;;;;;;7.00;4.40;;;;;;;20.29;58.61;99191.09;105679;1253;61374;-73
2023/06/30 05:35:20;;;;;;;6.60;4.40;;;;;;;20.35;58.66;99192.63;105721;1251;61279;-72
2023/06/30 05:37:46;;;;;;;6.80;4.80;;;;;;;20.42;58.61;99192.68;105735;1253;65694;-72
2023/06/30 05:40:13;;;;;;;5.90;4.50;;;;;;;20.51;58.75;99196.95;105829;1253;61291;-72
2023/06/30 05:42:41;;;;;;;5.40;4.50;;;;;;;20.62;58.63;99194.58;105779;1253;64147;-73
2023/06/30 05:45:08;;;;;;;5.20;4.70;;;;;;;20.68;58.11;99187.28;105739;1253;61168;-74
2023/06/30 05:47:36;;;;;;;5.60;4.60;;;;;;;20.74;58.24;99178.52;105823;1253;61249;-77
2023/06/30 05:50:03;;;;;;;5.50;4.90;;;;;;;20.83;58.15;99176.52;105837;1257;65705;-75
2023/06/30 05:52:30;;;;;;;5.20;4.50;;;;;;;20.93;57.96;99174.97;105778;1253;61189;-72
2023/06/30 05:54:59;;;;;;;4.80;4.30;;;;;;;21.01;57.62;99175.94;105933;1253;64130;-72
2023/06/30 05:57:29;;;;;;;6.00;4.50;;;;;;;21.08;57.47;99175.92;105955;1252;61333;-73
2023/06/30 05:59:55;;;;;;;7.60;5.20;;;;;;;21.13;57.17;99177.38;105983;1253;61943;-73
2023/06/30 06:02:22;;;;;;;6.00;5.00;;;;;;;21.13;56.82;99171.67;105837;1256;65722;-73
2023/06/30 06:04:51;;;;;;;5.00;4.60;;;;;;;21.11;56.62;99170.11;105634;1253;61350;-70
2023/06/30 06:07:18;;;;;;;7.00;4.90;;;;;;;21.15;56.79;99168.30;105611;1260;64011;-71
2023/06/30 06:09:45;;;;;;;5.20;4.50;;;;;;;21.22;56.87;99167.91;105486;1253;61316;-74
2023/06/30 06:12:12;;;;;;;6.90;5.20;;;;;;;21.32;56.66;99166.48;105606;1253;61329;-72
2023/06/30 06:14:39;;;;;;;5.50;5.00;;;;;;;21.41;56.29;99169.64;105636;1258;66082;-74
2023/06/30 06:17:07;;;;;;;5.20;4.60;;;;;;;21.48;56.14;99165.39;105407;1253;61406;-73
2023/06/30 06:27:11;;;;;;;7.40;4.70;;;;;;;21.91;55.81;99167.95;102665;1294;600607;-75
2023/06/30 06:37:11;;;;;;;7.20;5.00;;;;;;;22.29;54.72;99168.67;102720;1295;600221;-72
2023/06/30 06:39:39;;;;;;;7.90;4.30;;;;;;;22.37;54.24;99167.71;104810;1272;59656;-73
2023/06/30 06:50:02;;;;;;;5.30;4.80;;;;;;;22.73;53.76;99166.69;102485;1295;608033;-72
2023/06/30 06:52:29;;;;;;;6.60;4.80;;;;;;;22.77;53.52;99167.13;104829;1270;59347;-73
2023/06/30 06:54:57;;;;;;;7.30;4.90;;;;;;;22.85;53.39;99166.48;104963;1267;59350;-73
2023/06/30 06:57:23;;;;;;;5.10;4.60;;;;;;;22.95;53.69;99163.82;104947;1268;63442;-72
2023/06/30 06:59:50;;;;;;;9.90;5.10;;;;;;;23.06;53.31;99163.84;104837;1271;59331;-72
2023/06/30 07:02:17;;;;;;;9.20;4.60;;;;;;;23.12;52.88;99160.96;104701;1267;181382;-72
2023/06/30 07:04:43;;;;;;;7.50;5.10;;;;;;;23.13;52.64;99160.66;105031;1269;59116;-72
2023/06/30 07:07:11;;;;;;;6.50;4.70;;;;;;;23.12;52.34;99163.38;105131;1266;59375;-72
2023/06/30 07:09:37;;;;;;;6.50;4.90;;;;;;;23.10;52.41;99166.94;105118;1269;63666;-72
2023/06/30 07:12:05;;;;;;;5.90;4.50;;;;;;;23.09;52.33;99162.94;104964;1269;59234;-71
2023/06/30 07:14:31;;;;;;;5.40;4.10;;;;;;;23.11;52.37;99162.94;104923;1268;63985;-72
2023/06/30 07:16:58;;;;;;;8.20;4.90;;;;;;;23.18;52.22;99164.56;105450;1257;59621;-72
2023/06/30 07:19:25;;;;;;;6.40;4.90;;;;;;;23.24;51.95;99160.27;105512;1257;59650;-73
2023/06/30 07:21:52;;;;;;;7.70;4.90;;;;;;;23.30;51.87;99163.98;105625;1261;64360;-73
2023/06/30 07:24:19;;;;;;;6.20;4.60;;;;;;;23.37;51.50;99160.52;105550;1257;59671;-72
2023/06/30 07:26:46;;;;;;;6.20;4.70;;;;;;;23.48;51.55;99156.08;105300;1259;64015;-73
2023/06/30 07:29:13;;;;;;;6.10;4.80;;;;;;;23.57;51.09;99148.95;105309;1260;59621;-74
2023/06/30 07:31:40;;;;;;;6.10;4.50;;;;;;;23.64;51.00;99149.53;105529;1259;59644;-74
2023/06/30 07:34:07;;;;;;;6.40;4.60;;;;;;;23.73;50.15;99152.62;105468;1258;64306;-72
2023/06/30 07:36:35;;;;;;;5.50;4.70;;;;;;;23.80;49.92;99149.11;105434;1263;59525;-72
2023/06/30 07:39:02;;;;;;;4.50;4.10;;;;;;;23.90;49.95;99149.95;105438;1257;63848;-74
2023/06/30 07:41:34;;;;;;;6.80;4.40;;;;;;;24.00;49.42;99150.78;105474;1260;59764;-73
2023/06/30 07:44:02;;;;;;;6.30;4.70;;;;;;;24.14;49.57;99145.60;105598;1263;59500;-71
2023/06/30 07:46:30;;;;;;;6.40;4.50;;;;;;;24.27;49.72;99146.33;105376;1258;64537;-71
2023/06/30 07:48:57;;;;;;;5.30;4.40;;;;;;;24.39;48.75;99155.02;105415;1260;61151;-71
2023/06/30 07:51:24;;;;;;;5.00;4.20;;;;;;;24.48;48.21;99152.97;105549;1260;63810;-74
2023/06/30 07:53:51;;;;;;;5.60;4.30;;;;;;;24.56;47.60;99157.38;105374;1257;59634;-72
2023/06/30 07:56:17;;;;;;;4.80;4.30;;;;;;;24.62;47.74;99158.73;105446;1257;59643;-71
2023/06/30 07:58:44;;;;;;;6.20;4.40;;;;;;;24.68;47.48;99154.23;105309;1262;64115;-71
2023/06/30 08:01:11;;;;;;;5.20;4.30;;;;;;;24.73;47.88;99151.00;105539;1260;59801;-72
2023/06/30 08:03:38;;;;;;;6.20;4.50;;;;;;;24.81;48.26;99152.64;105491;1257;64057;-71
2023/06/30 08:06:04;;;;;;;5.30;4.80;;;;;;;24.92;48.07;99150.98;105260;1258;59627;-72
2023/06/30 08:08:33;;;;;;;4.90;4.30;;;;;;;25.04;47.82;99146.29;105568;1257;60196;-72
2023/06/30 08:10:59;;;;;;;4.70;4.30;;;;;;;25.13;47.83;99144.00;105231;1258;64397;-72
2023/06/30 08:13:26;;;;;;;6.80;4.20;;;;;;;25.21;47.27;99142.41;105581;1263;59646;-73
2023/06/30 08:15:53;;;;;;;10.30;4.10;;;;;;;25.30;46.71;99142.70;105370;1257;63855;-72
2023/06/30 08:18:21;;;;;;;6.70;4.40;;;;;;;25.39;46.80;99154.61;105495;1262;59561;-72
2023/06/30 08:21:02;;;;;;;4.90;4.00;;;;;;;25.44;45.79;99142.13;105385;1258;59657;-73
2023/06/30 08:23:29;;;;;;;6.10;4.20;;;;;;;25.45;45.77;99151.39;105850;1254;64390;-73
2023/06/30 08:25:56;;;;;;;6.70;4.50;;;;;;;25.49;45.47;99145.73;105664;1254;59618;-72
2023/06/30 08:28:25;;;;;;;10.90;4.90;;;;;;;25.56;45.64;99141.51;105661;1257;63827;-73
2023/06/30 08:30:51;;;;;;;6.30;4.50;;;;;;;25.66;45.43;99143.42;105592;1259;59656;-73
2023/06/30 08:33:21;;;;;;;7.80;4.40;;;;;;;25.78;45.46;99140.09;105694;1254;59628;-73
2023/06/30 08:36:06;;;;;;;5.00;4.00;;;;;;;25.94;45.08;99136.61;105752;1254;64368;-73
2023/06/30 08:38:33;;;;;;;5.10;3.80;;;;;;;26.07;44.96;99136.98;105659;1254;59615;-73
2023/06/30 08:41:00;;;;;;;12.00;4.30;;;;;;;26.15;44.27;99143.05;105609;1254;63986;-73
2023/06/30 08:43:27;;;;;;;12.10;4.60;;;;;;;26.16;43.46;99143.00;105896;1258;59656;-73
2023/06/30 08:45:54;;;;;;;6.40;4.20;;;;;;;26.15;43.50;99141.35;105712;1259;59584;-73
2023/06/30 08:48:22;;;;;;;5.50;4.30;;;;;;;26.23;43.74;99139.93;105677;1256;64090;-73
2023/06/30 08:50:49;;;;;;;6.10;4.30;;;;;;;26.33;43.67;99145.41;105671;1259;59641;-73
2023/06/30 08:53:17;;;;;;;6.10;4.60;;;;;;;26.41;43.41;99144.15;105722;1254;64024;-72
2023/06/30 08:55:45;;;;;;;4.70;4.00;;;;;;;26.46;43.14;99136.80;105698;1259;59557;-72
2023/06/30 08:58:12;;;;;;;5.80;4.30;;;;;;;26.54;43.23;99132.48;105900;1256;59605;-71
2023/06/30 09:00:53;;;;;;;4.80;3.90;;;;;;;26.62;42.98;99133.21;105805;1258;64376;-73
2023/06/30 09:03:20;;;;;;;5.30;4.30;;;;;;;26.64;42.69;99132.82;105689;1259;59713;-73
2023/06/30 09:05:47;;;;;;;6.00;4.30;;;;;;;26.68;42.93;99137.98;105740;1260;64019;-72
2023/06/30 09:08:23;;;;;;;6.00;4.00;;;;;;;26.71;42.25;99139.03;105826;1260;59692;-73
2023/06/30 09:10:50;;;;;;;6.60;3.70;;;;;;;26.77;42.65;99138.02;106122;1256;59626;-73
2023/06/30 09:13:18;;;;;;;4.60;3.80;;;;;;;26.89;42.07;99130.20;105701;1258;63253;-73
2023/06/30 09:15:44;;;;;;;8.10;4.60;;;;;;;26.96;41.67;99132.05;105813;1257;59660;-73
2023/06/30 09:18:12;;;;;;;4.90;3.90;;;;;;;27.03;41.50;99127.74;105718;1260;63778;-72
2023/06/30 09:20:40;;;;;;;6.40;3.90;;;;;;;27.15;41.58;99123.77;105719;1256;59502;-73
2023/06/30 09:23:06;;;;;;;5.00;4.10;;;;;;;27.30;41.27;99137.87;105887;1253;59644;-69
2023/06/30 09:25:33;;;;;;;4.00;3.60;;;;;;;27.43;40.54;99128.07;105731;1254;64490;-73
2023/06/30 09:28:07;;;;;;;6.10;4.00;;;;;;;27.50;40.00;99130.77;105788;1258;59770;-71
2023/06/30 09:30:36;;;;;;;5.50;3.80;;;;;;;27.57;39.62;99130.21;105830;1254;64108;-72
2023/06/30 09:33:02;;;;;;;4.20;3.60;;;;;;;27.67;39.50;99121.49;106071;1267;59564;-71
2023/06/30 09:35:40;;;;;;;4.00;3.60;;;;;;;27.79;39.83;99120.16;105693;1254;59535;-75
2023/06/30 09:38:13;;;;;;;4.00;3.70;;;;;;;27.96;39.42;99133.46;105787;1258;64443;-75
2023/06/30 09:40:48;;;;;;;4.30;3.90;;;;;;;28.05;38.85;99123.83;105882;1257;59791;-73
2023/06/30 09:43:16;;;;;;;7.70;3.80;;;;;;;28.14;38.80;99121.47;105787;1259;63949;-75
2023/06/30 09:45:44;;;;;;;5.60;4.10;;;;;;;28.24;38.16;99122.31;105785;1257;59625;-71
2023/06/30 09:48:12;;;;;;;6.30;4.40;;;;;;;28.30;37.83;99122.95;105720;1259;59704;-69
2023/06/30 09:50:40;;;;;;;5.60;3.80;;;;;;;28.35;38.06;99118.19;105475;1254;64494;-72
2023/06/30 09:53:07;;;;;;;6.30;3.90;;;;;;;28.46;38.11;99115.34;105720;1257;59634;-71
2023/06/30 09:55:51;;;;;;;4.60;3.90;;;;;;;28.61;37.99;99119.48;105515;1257;64054;-71
2023/06/30 09:58:19;;;;;;;4.90;4.30;;;;;;;28.75;37.44;99123.89;105660;1260;59576;-71
2023/06/30 10:00:46;;;;;;;4.10;3.70;;;;;;;28.79;36.85;99122.65;105769;1254;59720;-71
2023/06/30 10:03:16;;;;;;;5.60;3.90;;;;;;;28.77;36.75;99124.98;105759;1256;64419;-71
2023/06/30 10:05:44;;;;;;;7.10;3.80;;;;;;;28.77;37.11;99125.48;105732;1257;59614;-71
2023/06/30 10:08:12;;;;;;;6.90;4.20;;;;;;;28.85;36.94;99117.11;105813;1255;64009;-71
2023/06/30 10:10:42;;;;;;;5.90;3.70;;;;;;;28.99;37.44;99108.81;105664;1259;59582;-71
2023/06/30 10:13:15;;;;;;;4.80;3.90;;;;;;;29.21;37.02;99108.18;105890;1260;59660;-71
2023/06/30 10:15:41;;;;;;;6.00;3.80;;;;;;;29.41;36.57;99107.43;105747;1259;64211;-71
2023/06/30 10:18:10;;;;;;;6.80;3.90;;;;;;;29.53;36.32;99104.98;105696;1259;59708;-71
2023/06/30 10:20:38;;;;;;;4.90;4.20;;;;;;;29.60;36.01;99105.77;105674;1254;62755;-72
2023/06/30 10:23:18;;;;;;;6.40;4.00;;;;;;;29.67;35.49;99104.45;105705;1267;59618;-72
2023/06/30 10:25:45;;;;;;;5.20;4.20;;;;;;;29.77;35.39;99107.63;105651;1255;59733;-72
2023/06/30 10:28:12;;;;;;;5.00;3.90;;;;;;;29.82;34.74;99103.88;105697;1255;64419;-72
2023/06/30 10:30:39;;;;;;;6.40;4.30;;;;;;;29.87;34.99;99099.84;105582;1260;59526;-71
2023/06/30 10:33:06;;;;;;;8.90;4.20;;;;;;;30.00;35.55;99098.97;105629;1259;64838;-72
2023/06/30 10:35:33;;;;;;;6.70;4.00;;;;;;;30.22;34.31;99099.95;105534;1260;60630;-72
2023/06/30 10:38:00;;;;;;;5.70;3.90;;;;;;;30.33;33.31;99099.73;105626;1260;59697;-71
2023/06/30 10:40:29;;;;;;;5.70;4.00;;;;;;;30.26;32.72;99098.31;105592;1259;64511;-73
2023/06/30 10:42:57;;;;;;;4.40;4.00;;;;;;;29.99;32.71;99107.64;105931;1253;59634;-74
2023/06/30 10:45:34;;;;;;;9.40;4.30;;;;;;;29.65;33.45;99121.98;105669;1253;63901;-73
2023/06/30 10:48:09;;;;;;;11.30;4.60;;;;;;;29.24;37.97;99140.42;105724;1259;59614;-72
2023/06/30 10:50:41;;;;;;;5.80;4.40;;;;;;;28.68;40.49;99127.35;105737;1255;59640;-74
2023/06/30 10:53:08;;;;;;;6.80;4.20;;;;;;;28.13;42.34;99122.77;105855;1256;64824;-73
2023/06/30 10:55:35;;;;;;;7.30;4.60;;;;;;;27.67;44.96;99119.74;106280;1259;59272;-72
2023/06/30 10:58:02;;;;;;;8.30;4.80;;;;;;;27.48;46.52;99117.46;105949;1259;64055;-75
2023/06/30 11:00:31;;;;;;;7.20;4.90;;;;;;;27.43;47.89;99114.30;106193;1257;60427;-73
2023/06/30 11:02:59;;;;;;;6.40;4.10;;;;;;;27.36;47.66;99112.25;105922;1255;61143;-72
2023/06/30 11:05:32;;;;;;;5.90;4.40;;;;;;;27.25;47.82;99113.48;106414;1257;66864;-72
2023/06/30 11:08:02;;;;;;;6.10;4.70;;;;;;;27.15;47.41;99113.09;105898;1254;60466;-71
2023/06/30 11:10:35;;;;;;;6.80;4.50;;;;;;;27.05;47.80;99106.61;105576;1260;64505;-72
2023/06/30 11:13:09;;;;;;;9.70;4.50;;;;;;;26.97;48.42;99109.84;105776;1260;60526;-71
2023/06/30 11:15:45;;;;;;;9.10;4.60;;;;;;;26.99;48.94;99107.26;105691;1260;59345;-72
2023/06/30 11:18:15;;;;;;;7.30;5.00;;;;;;;27.22;49.51;99103.54;105547;1257;65212;-76
2023/06/30 11:21:02;;;;;;;6.20;4.50;;;;;;;27.60;49.72;99103.16;105493;1260;60568;-74
2023/06/30 11:23:37;;;;;;;6.00;4.00;;;;;;;28.11;47.66;99092.20;105431;1259;64156;-72
2023/06/30 11:26:14;;;;;;;8.60;4.40;;;;;;;28.44;44.96;99093.55;105565;1260;60367;-72
2023/06/30 11:28:44;;;;;;;4.40;4.00;;;;;;;28.67;43.55;99089.76;106069;1257;60444;-73
2023/06/30 11:31:11;;;;;;;5.70;4.10;;;;;;;28.82;42.19;99084.27;105883;1259;65731;-71
2023/06/30 11:33:40;;;;;;;4.40;4.00;;;;;;;28.86;40.36;99084.59;105991;1254;60304;-73
2023/06/30 11:36:17;;;;;;;5.10;4.10;;;;;;;28.79;39.55;99086.88;105980;1260;64508;-74
2023/06/30 11:38:50;;;;;;;5.00;4.40;;;;;;;28.65;38.97;99092.91;106342;1257;60304;-71
2023/06/30 11:41:18;;;;;;;6.60;4.00;;;;;;;28.58;39.14;99088.18;106151;1254;59733;-73
2023/06/30 11:43:56;;;;;;;6.10;3.80;;;;;;;28.69;39.48;99086.82;106255;1254;65063;-74
2023/06/30 11:46:23;;;;;;;4.50;3.70;;;;;;;28.95;39.37;99076.51;106127;1254;60546;-72
2023/06/30 11:48:50;;;;;;;4.40;3.90;;;;;;;29.25;39.15;99073.41;105938;1257;64024;-74
2023/06/30 11:51:17;;;;;;;4.20;3.80;;;;;;;29.55;38.87;99067.20;106268;1259;60338;-74